createdAt,value
2022-12-22T00:01:35.935Z,10.32
2022-12-22T00:04:41.665Z,10.28
2022-12-22T00:07:47.384Z,10.40
2022-12-22T00:10:53.043Z,10.28
2022-12-22T00:14:00.144Z,10.30
2022-12-22T00:17:07.535Z,10.48
2022-12-22T00:20:18.282Z,10.28
2022-12-22T00:23:24.491Z,10.40
2022-12-22T00:26:30.708Z,10.37
2022-12-22T00:29:36.508Z,10.29
2022-12-22T00:32:48.596Z,10.27
2022-12-22T00:35:54.266Z,10.18
2022-12-22T00:38:59.683Z,10.13
2022-12-22T00:42:05.268Z,10.05
2022-12-22T00:45:11.136Z,9.95
2022-12-22T00:48:18.396Z,9.98
2022-12-22T00:51:24.639Z,10.06
2022-12-22T00:54:31.932Z,9.93
2022-12-22T00:57:41.874Z,10.01
2022-12-22T01:00:47.576Z,9.95
2022-12-22T01:03:54.657Z,9.96
2022-12-22T01:07:01.887Z,9.93
2022-12-22T01:10:09.982Z,10.08
2022-12-22T01:13:15.653Z,10.00
2022-12-22T01:16:21.240Z,9.92
2022-12-22T01:19:27.961Z,9.93
2022-12-22T01:22:39.620Z,10.00
2022-12-22T01:25:45.435Z,9.89
2022-12-22T01:28:51.099Z,10.00
2022-12-22T01:31:57.349Z,9.94
2022-12-22T01:35:04.328Z,9.87
2022-12-22T01:38:10.084Z,9.87
2022-12-22T01:41:17.416Z,9.80
2022-12-22T01:44:32.144Z,9.72
2022-12-22T01:47:49.498Z,9.87
2022-12-22T01:50:56.457Z,9.85
2022-12-22T01:54:02.241Z,9.83
2022-12-22T01:57:08.456Z,9.88
2022-12-22T02:00:14.083Z,9.94
2022-12-22T02:03:19.898Z,9.93
2022-12-22T02:06:36.860Z,9.84
2022-12-22T02:09:58.506Z,9.87
2022-12-22T02:13:08.752Z,9.89
2022-12-22T02:16:20.195Z,9.89
2022-12-22T02:19:33.973Z,9.93
2022-12-22T02:22:47.911Z,9.89
2022-12-22T02:25:59.951Z,9.82
2022-12-22T02:29:08.653Z,9.85
2022-12-22T02:32:14.934Z,9.82
2022-12-22T02:35:20.785Z,9.86
2022-12-22T02:38:37.618Z,9.90
2022-12-22T02:41:50.772Z,9.87
2022-12-22T02:45:04.794Z,9.48
2022-12-22T02:48:21.148Z,9.81
2022-12-22T02:51:32.550Z,9.89
2022-12-22T02:54:40.744Z,9.90
2022-12-22T02:57:47.560Z,9.74
2022-12-22T03:00:54.606Z,9.76
2022-12-22T03:04:00.171Z,9.76
2022-12-22T03:07:05.796Z,9.88
2022-12-22T03:10:11.481Z,9.90
2022-12-22T03:13:17.673Z,9.76
2022-12-22T03:16:24.668Z,9.79
2022-12-22T03:19:30.390Z,9.83
2022-12-22T03:22:35.948Z,9.93
2022-12-22T03:25:41.842Z,10.07
2022-12-22T03:28:30.213Z,10.09
2022-12-22T03:31:19.588Z,9.97
2022-12-22T03:34:07.582Z,10.07
2022-12-22T03:36:55.566Z,10.03
2022-12-22T03:39:43.519Z,10.09
2022-12-22T03:42:49.389Z,10.01
2022-12-22T03:45:54.106Z,10.10
2022-12-22T03:48:43.768Z,10.04
2022-12-22T03:51:31.755Z,10.08
2022-12-22T03:54:21.854Z,10.07
2022-12-22T03:57:09.900Z,10.08
2022-12-22T03:59:58.013Z,10.11
2022-12-22T04:02:46.199Z,10.01
2022-12-22T04:05:35.708Z,10.09
2022-12-22T04:08:23.676Z,10.20
2022-12-22T04:11:30.732Z,10.19
2022-12-22T04:14:18.776Z,10.21
2022-12-22T04:17:08.143Z,10.23
2022-12-22T04:19:56.138Z,10.27
2022-12-22T04:22:45.740Z,10.21
2022-12-22T04:25:33.813Z,10.26
2022-12-22T04:28:21.888Z,10.19
2022-12-22T04:31:09.886Z,10.28
2022-12-22T04:33:57.870Z,10.33
2022-12-22T04:36:45.942Z,10.21
2022-12-22T04:39:35.318Z,10.17
2022-12-22T04:42:23.355Z,10.13
2022-12-22T04:45:12.058Z,10.13
2022-12-22T04:48:00.095Z,10.00
2022-12-22T04:50:51.465Z,9.96
2022-12-22T04:53:39.532Z,10.21
2022-12-22T04:56:28.848Z,10.03
2022-12-22T04:59:16.793Z,10.06
2022-12-22T05:02:04.836Z,9.96
2022-12-22T05:04:52.989Z,10.10
2022-12-22T05:07:40.965Z,10.02
2022-12-22T05:10:29.024Z,9.86
2022-12-22T05:13:18.365Z,9.83
2022-12-22T05:16:07.896Z,9.96
2022-12-22T05:18:56.025Z,9.85
2022-12-22T05:21:44.052Z,9.84
2022-12-22T05:24:32.045Z,9.34
2022-12-22T05:27:20.559Z,9.89
2022-12-22T05:30:11.222Z,9.94
2022-12-22T05:32:59.168Z,9.87
2022-12-22T05:35:47.145Z,9.79
2022-12-22T05:38:35.160Z,9.88
2022-12-22T05:41:23.202Z,9.80
2022-12-22T05:44:11.281Z,9.87
2022-12-22T05:47:00.580Z,9.91
2022-12-22T05:49:48.514Z,9.93
2022-12-22T05:52:36.879Z,9.27
2022-12-22T05:55:24.903Z,9.95
2022-12-22T05:58:12.874Z,10.08
2022-12-22T06:01:02.516Z,9.81
2022-12-22T06:03:57.758Z,10.05
2022-12-22T06:06:47.812Z,10.02
2022-12-22T06:09:35.828Z,9.96
2022-12-22T06:12:23.873Z,10.14
2022-12-22T06:15:14.328Z,10.15
2022-12-22T06:18:02.322Z,10.17
2022-12-22T06:20:53.544Z,10.18
2022-12-22T06:23:41.551Z,10.16
2022-12-22T06:26:29.509Z,10.22
2022-12-22T06:29:17.539Z,10.27
2022-12-22T06:32:06.119Z,10.25
2022-12-22T06:34:54.097Z,10.35
2022-12-22T06:37:43.391Z,10.15
2022-12-22T06:40:31.412Z,10.26
2022-12-22T06:43:19.265Z,10.20
2022-12-22T06:46:07.280Z,10.18
2022-12-22T06:48:55.284Z,10.20
2022-12-22T06:51:43.672Z,10.14
2022-12-22T06:54:32.979Z,10.21
2022-12-22T06:57:20.897Z,10.23
2022-12-22T07:00:10.543Z,10.28
2022-12-22T07:02:58.850Z,10.19
2022-12-22T07:05:27.008Z,10.11
2022-12-22T07:07:54.821Z,10.25
2022-12-22T07:10:43.849Z,10.20
2022-12-22T07:13:20.277Z,10.20
2022-12-22T07:15:50.958Z,10.21
2022-12-22T07:18:25.376Z,10.24
2022-12-22T07:20:53.228Z,10.13
2022-12-22T07:23:20.963Z,10.16
2022-12-22T07:25:49.964Z,10.16
2022-12-22T07:28:20.895Z,10.13
2022-12-22T07:30:48.825Z,10.22
2022-12-22T07:33:16.917Z,10.26
2022-12-22T07:35:44.873Z,10.13
2022-12-22T07:38:13.282Z,10.16
2022-12-22T07:40:42.373Z,10.17
2022-12-22T07:43:11.138Z,10.25
2022-12-22T07:45:39.286Z,10.24
2022-12-22T07:48:27.347Z,10.26
2022-12-22T07:50:55.202Z,10.16
2022-12-22T07:53:22.879Z,10.16
2022-12-22T07:55:50.585Z,10.26
2022-12-22T07:58:19.667Z,10.37
2022-12-22T08:00:47.930Z,10.23
2022-12-22T08:03:15.714Z,10.27
2022-12-22T08:05:44.475Z,10.39
2022-12-22T08:08:12.195Z,10.36
2022-12-22T08:10:39.927Z,10.51
2022-12-22T08:13:07.722Z,10.49
2022-12-22T08:15:38.000Z,10.45
2022-12-22T08:18:05.858Z,10.44
2022-12-22T08:20:33.575Z,10.53
2022-12-22T08:23:01.279Z,10.44
2022-12-22T08:25:29.067Z,10.58
2022-12-22T08:27:58.249Z,10.49
2022-12-22T08:30:26.415Z,10.56
2022-12-22T08:32:55.446Z,10.53
2022-12-22T08:35:23.285Z,10.60
2022-12-22T08:37:52.619Z,10.71
2022-12-22T08:40:23.531Z,10.70
2022-12-22T08:42:55.223Z,10.82
2022-12-22T08:45:22.938Z,10.80
2022-12-22T08:47:50.638Z,10.90
2022-12-22T08:50:19.764Z,10.96
2022-12-22T08:52:47.495Z,10.32
2022-12-22T08:55:15.317Z,11.03
2022-12-22T08:57:43.185Z,10.96
2022-12-22T09:00:13.517Z,11.02
2022-12-22T09:02:41.606Z,11.01
2022-12-22T09:05:10.130Z,10.95
2022-12-22T09:07:39.171Z,10.91
2022-12-22T09:10:08.222Z,10.85
2022-12-22T09:12:36.131Z,11.02
2022-12-22T09:15:03.971Z,10.97
2022-12-22T09:17:31.612Z,10.98
2022-12-22T09:19:59.490Z,11.04
2022-12-22T09:22:28.365Z,11.08
2022-12-22T09:24:57.947Z,11.01
2022-12-22T09:27:25.686Z,11.03
2022-12-22T09:29:53.386Z,11.09
2022-12-22T09:32:21.085Z,11.04
2022-12-22T09:34:49.283Z,11.02
2022-12-22T09:37:17.352Z,11.04
2022-12-22T09:39:45.248Z,10.98
2022-12-22T09:42:16.476Z,11.10
2022-12-22T09:44:46.308Z,11.02
2022-12-22T09:47:19.859Z,11.01
2022-12-22T09:49:47.759Z,10.93
2022-12-22T09:52:26.167Z,10.93
2022-12-22T09:54:53.946Z,11.02
2022-12-22T09:57:29.813Z,10.93
2022-12-22T09:59:58.689Z,10.85
2022-12-22T10:02:32.835Z,10.83
2022-12-22T10:05:15.931Z,10.84
2022-12-22T10:07:44.495Z,10.75
2022-12-22T10:10:24.820Z,10.64
2022-12-22T10:12:56.094Z,10.68
2022-12-22T10:15:24.627Z,10.71
2022-12-22T10:17:54.396Z,10.49
2022-12-22T10:20:26.283Z,10.49
2022-12-22T10:22:56.308Z,10.41
2022-12-22T10:25:51.873Z,10.33
2022-12-22T10:28:25.204Z,10.43
2022-12-22T10:31:11.434Z,10.48
2022-12-22T10:33:45.953Z,10.53
2022-12-22T10:36:15.870Z,10.55
2022-12-22T10:38:57.213Z,10.61
2022-12-22T10:41:28.189Z,10.71
2022-12-22T10:43:59.963Z,10.61
2022-12-22T10:46:35.020Z,10.76
2022-12-22T10:49:17.817Z,10.72
2022-12-22T10:51:48.009Z,10.81
2022-12-22T10:54:30.301Z,10.75
2022-12-22T10:57:07.909Z,10.80
2022-12-22T10:59:49.082Z,10.76
2022-12-22T11:02:30.076Z,10.87
2022-12-22T11:05:04.102Z,10.85
2022-12-22T11:07:34.599Z,11.02
2022-12-22T11:10:02.759Z,11.02
2022-12-22T11:12:39.145Z,10.87
2022-12-22T11:15:24.283Z,10.87
2022-12-22T11:17:59.322Z,10.91
2022-12-22T11:20:47.259Z,11.07
2022-12-22T11:23:26.446Z,11.08
2022-12-22T11:26:01.518Z,11.16
2022-12-22T11:28:54.175Z,11.03
2022-12-22T11:31:39.878Z,11.15
2022-12-22T11:34:21.513Z,11.17
2022-12-22T11:37:03.408Z,11.28
2022-12-22T11:39:41.290Z,11.12
2022-12-22T11:42:25.636Z,11.13
2022-12-22T11:45:04.869Z,11.12
2022-12-22T11:47:44.753Z,11.20
2022-12-22T11:50:58.533Z,11.07
2022-12-22T11:53:53.907Z,11.16
2022-12-22T11:56:25.214Z,11.05
2022-12-22T11:59:11.618Z,11.14
2022-12-22T12:01:59.019Z,11.11
2022-12-22T12:04:48.506Z,11.10
2022-12-22T12:07:26.254Z,11.13
2022-12-22T12:10:03.333Z,11.16
2022-12-22T12:12:43.439Z,11.24
2022-12-22T12:15:23.751Z,11.31
2022-12-22T12:18:22.642Z,11.18
2022-12-22T12:21:03.239Z,11.14
2022-12-22T12:23:51.103Z,11.33
2022-12-22T12:26:23.919Z,11.30
2022-12-22T12:29:05.702Z,11.17
2022-12-22T12:31:40.333Z,11.13
2022-12-22T12:34:13.686Z,11.26
2022-12-22T12:36:49.575Z,10.96
2022-12-22T12:39:23.684Z,11.11
2022-12-22T12:42:00.292Z,11.14
2022-12-22T12:44:32.520Z,11.07
2022-12-22T12:47:23.900Z,11.27
2022-12-22T12:50:27.181Z,11.16
2022-12-22T12:53:07.934Z,11.25
2022-12-22T12:55:52.992Z,11.10
2022-12-22T12:59:02.338Z,11.17
2022-12-22T13:01:58.108Z,11.09
2022-12-22T13:05:14.798Z,11.12
2022-12-22T13:08:14.377Z,11.13
2022-12-22T13:12:01.197Z,11.09
2022-12-22T13:14:11.350Z,11.14
2022-12-22T13:16:41.275Z,11.23
2022-12-22T13:19:20.688Z,11.08
2022-12-22T13:21:54.260Z,11.23
2022-12-22T13:24:29.715Z,11.16
2022-12-22T13:27:06.574Z,11.19
2022-12-22T13:29:46.255Z,11.08
2022-12-22T13:32:22.027Z,11.16
2022-12-22T13:35:29.944Z,11.03
2022-12-22T13:37:47.712Z,11.11
2022-12-22T13:40:20.043Z,11.16
2022-12-22T13:42:50.347Z,11.22
2022-12-22T13:45:30.621Z,11.04
2022-12-22T13:48:00.708Z,11.11
2022-12-22T13:50:33.322Z,11.15
2022-12-22T13:53:03.888Z,11.08
2022-12-22T13:55:34.070Z,11.23
2022-12-22T13:58:07.155Z,11.18
2022-12-22T14:00:35.319Z,11.13
2022-12-22T14:03:04.812Z,11.14
2022-12-22T14:05:34.223Z,11.16
2022-12-22T14:08:04.076Z,11.10
2022-12-22T14:10:36.788Z,11.09
2022-12-22T14:13:08.834Z,11.24
2022-12-22T14:15:36.614Z,11.15
2022-12-22T14:18:04.625Z,11.24
2022-12-22T14:20:36.438Z,11.26
2022-12-22T14:23:07.416Z,11.32
2022-12-22T14:25:39.213Z,11.27
2022-12-22T14:28:09.620Z,10.71
2022-12-22T14:30:39.789Z,11.04
2022-12-22T14:33:27.268Z,11.32
2022-12-22T14:36:06.096Z,11.25
2022-12-22T14:38:40.582Z,11.16
2022-12-22T14:41:39.667Z,11.18
2022-12-22T14:44:11.888Z,11.24
2022-12-22T14:46:40.020Z,11.23
2022-12-22T14:49:14.463Z,11.18
2022-12-22T14:51:42.387Z,11.18
2022-12-22T14:54:19.898Z,11.29
2022-12-22T14:56:52.066Z,11.31
2022-12-22T14:59:27.964Z,11.29
2022-12-22T15:02:01.115Z,11.34
2022-12-22T15:04:29.757Z,11.33
2022-12-22T15:07:45.653Z,11.31
2022-12-22T15:10:20.727Z,11.36
2022-12-22T15:12:50.742Z,11.18
2022-12-22T15:15:21.264Z,11.28
2022-12-22T15:17:50.873Z,11.38
2022-12-22T15:20:21.466Z,11.41
2022-12-22T15:22:49.350Z,11.35
2022-12-22T15:25:19.246Z,11.42
2022-12-22T15:27:47.158Z,11.37
2022-12-22T15:30:18.126Z,11.30
2022-12-22T15:32:46.392Z,11.24
2022-12-22T15:35:20.302Z,11.11
2022-12-22T15:37:48.027Z,10.98
2022-12-22T15:40:21.115Z,10.95
2022-12-22T15:42:49.233Z,10.58
2022-12-22T15:45:19.652Z,10.75
2022-12-22T15:47:50.918Z,10.66
2022-12-22T15:50:21.585Z,10.51
2022-12-22T15:52:52.525Z,10.50
2022-12-22T15:55:20.855Z,10.38
2022-12-22T15:57:51.412Z,10.30
2022-12-22T16:00:22.555Z,10.35
2022-12-22T16:02:50.854Z,10.32
2022-12-22T16:05:19.532Z,10.29
2022-12-22T16:07:47.361Z,10.30
2022-12-22T16:10:25.395Z,10.14
2022-12-22T16:12:59.970Z,10.17
2022-12-22T16:15:30.655Z,10.16
2022-12-22T16:17:59.351Z,10.15
2022-12-22T16:20:29.632Z,10.15
2022-12-22T16:22:59.714Z,10.22
2022-12-22T16:25:31.127Z,10.24
2022-12-22T16:27:58.835Z,10.29
2022-12-22T16:30:30.365Z,10.19
2022-12-22T16:32:58.083Z,10.26
2022-12-22T16:35:28.685Z,10.28
2022-12-22T16:37:59.318Z,10.37
2022-12-22T16:40:28.470Z,10.43
2022-12-22T16:45:47.448Z,10.35
2022-12-22T16:48:19.811Z,10.22
2022-12-22T16:50:48.847Z,10.26
2022-12-22T16:53:16.679Z,10.33
2022-12-22T16:55:44.446Z,10.21
2022-12-22T16:58:14.171Z,10.32
2022-12-22T17:00:44.721Z,10.21
2022-12-22T17:03:16.323Z,10.12
2022-12-22T17:05:48.151Z,10.37
2022-12-22T17:08:21.497Z,10.23
2022-12-22T17:10:49.602Z,10.38
2022-12-22T17:13:18.537Z,10.46
2022-12-22T17:15:46.466Z,10.53
2022-12-22T17:18:20.767Z,10.44
2022-12-22T17:20:51.066Z,10.47
2022-12-22T17:23:31.367Z,10.46
2022-12-22T17:26:00.484Z,10.52
2022-12-22T17:28:28.626Z,10.39
2022-12-22T17:30:56.418Z,10.57
2022-12-22T17:33:25.544Z,10.59
2022-12-22T17:35:53.709Z,10.60
2022-12-22T17:38:24.484Z,10.51
2022-12-22T17:40:52.505Z,10.57
2022-12-22T17:43:22.344Z,10.52
2022-12-22T17:45:50.035Z,10.52
2022-12-22T17:48:18.179Z,10.44
2022-12-22T17:50:49.467Z,10.54
2022-12-22T17:53:20.618Z,10.56
2022-12-22T17:58:36.543Z,10.55
2022-12-22T18:01:04.359Z,10.60
2022-12-22T18:03:32.130Z,10.62
2022-12-22T18:06:01.244Z,10.57
2022-12-22T18:08:28.993Z,10.68
2022-12-22T18:10:56.753Z,10.64
2022-12-22T18:13:26.299Z,10.56
2022-12-22T18:15:55.989Z,10.68
2022-12-22T18:18:24.165Z,10.71
2022-12-22T18:21:07.641Z,10.75
2022-12-22T18:23:37.893Z,10.62
2022-12-22T18:26:08.284Z,10.59
2022-12-22T18:28:36.456Z,10.68
2022-12-22T18:31:04.311Z,10.43
2022-12-22T18:33:32.152Z,10.45
2022-12-22T18:36:00.192Z,10.63
2022-12-22T18:38:30.783Z,10.64
2022-12-22T18:41:00.373Z,10.84
2022-12-22T18:43:28.328Z,10.62
2022-12-22T18:45:56.067Z,10.61
2022-12-22T18:48:23.785Z,10.58
2022-12-22T18:50:51.575Z,10.72
2022-12-22T18:53:25.755Z,10.72
2022-12-22T18:55:54.197Z,10.88
2022-12-22T18:58:23.431Z,10.82
2022-12-22T19:00:52.645Z,10.56
2022-12-22T19:03:22.766Z,10.63
2022-12-22T19:05:50.846Z,10.59
2022-12-22T19:08:19.695Z,10.58
2022-12-22T19:10:49.718Z,10.51
2022-12-22T19:13:27.732Z,10.31
2022-12-22T19:15:56.292Z,10.10
2022-12-22T19:18:27.307Z,10.36
2022-12-22T19:20:56.063Z,10.37
2022-12-22T19:23:25.618Z,10.07
2022-12-22T19:25:56.197Z,10.41
2022-12-22T19:28:30.103Z,10.35
2022-12-22T19:30:58.159Z,10.30
2022-12-22T19:33:30.459Z,10.06
2022-12-22T19:35:59.007Z,10.03
2022-12-22T19:38:27.982Z,10.05
2022-12-22T19:40:59.224Z,10.07
2022-12-22T19:43:28.562Z,9.91
2022-12-22T19:45:56.782Z,9.92
2022-12-22T19:48:27.435Z,9.80
2022-12-22T19:50:55.384Z,9.76
2022-12-22T19:53:23.113Z,9.70
2022-12-22T19:55:53.768Z,9.79
2022-12-22T19:58:24.903Z,9.60
2022-12-22T20:00:55.343Z,9.63
2022-12-22T20:03:25.965Z,9.71
2022-12-22T20:05:54.044Z,9.30
2022-12-22T20:08:21.714Z,9.60
2022-12-22T20:10:54.447Z,9.62
2022-12-22T20:13:26.891Z,9.64
2022-12-22T20:15:55.890Z,9.65
2022-12-22T20:18:27.502Z,9.63
2022-12-22T20:21:01.225Z,9.67
2022-12-22T20:23:32.925Z,9.66
2022-12-22T20:26:04.348Z,9.67
2022-12-22T20:28:34.482Z,9.73
2022-12-22T20:31:04.787Z,9.72
2022-12-22T20:33:33.437Z,9.77
2022-12-22T20:36:02.629Z,9.77
2022-12-22T20:38:34.067Z,9.80
2022-12-22T20:41:03.056Z,9.76
2022-12-22T20:43:32.515Z,9.65
2022-12-22T20:46:07.600Z,9.92
2022-12-22T20:48:39.229Z,9.91
2022-12-22T20:51:11.759Z,9.79
2022-12-22T20:53:39.504Z,9.87
2022-12-22T20:56:12.164Z,9.83
2022-12-22T20:58:39.866Z,9.91
2022-12-22T21:01:08.966Z,9.90
2022-12-22T21:03:55.350Z,9.97
2022-12-22T21:06:46.382Z,9.95
2022-12-22T21:09:34.689Z,9.85
2022-12-22T21:12:22.614Z,9.90
2022-12-22T21:15:17.382Z,9.91
2022-12-22T21:18:13.867Z,9.94
2022-12-22T21:21:01.923Z,9.64
2022-12-22T21:23:50.035Z,9.81
2022-12-22T21:26:42.715Z,9.89
2022-12-22T21:29:30.968Z,9.98
2022-12-22T21:32:19.029Z,9.91
2022-12-22T21:35:13.349Z,9.97
2022-12-22T21:38:01.863Z,9.54
2022-12-22T21:40:50.011Z,9.86
2022-12-22T21:43:37.987Z,10.02
2022-12-22T21:46:26.189Z,10.00
2022-12-22T21:49:19.724Z,9.94
2022-12-22T21:52:10.322Z,9.79
2022-12-22T21:54:58.265Z,9.89
2022-12-22T21:57:46.568Z,9.97
2022-12-22T22:00:35.332Z,10.04
2022-12-22T22:03:23.389Z,9.88
2022-12-22T22:06:11.312Z,9.87
2022-12-22T22:09:00.903Z,9.85
2022-12-22T22:12:06.486Z,9.86
2022-12-22T22:14:54.534Z,9.97
2022-12-22T22:17:43.535Z,9.97
2022-12-22T22:20:33.022Z,9.98
2022-12-22T22:23:21.077Z,9.83
2022-12-22T22:26:11.592Z,9.86
2022-12-22T22:28:59.662Z,9.83
2022-12-22T22:31:47.775Z,9.90
2022-12-22T22:34:35.965Z,10.02
2022-12-22T22:37:24.117Z,9.89
2022-12-22T22:40:15.030Z,9.85
2022-12-22T22:43:04.593Z,9.83
2022-12-22T22:45:53.143Z,9.93
2022-12-22T22:48:41.195Z,9.90
2022-12-22T22:51:29.218Z,9.90
2022-12-22T22:54:17.225Z,10.04
2022-12-22T22:57:05.449Z,10.00
2022-12-22T22:59:54.771Z,9.77
2022-12-22T23:02:43.016Z,9.96
2022-12-22T23:05:31.092Z,9.83
2022-12-22T23:08:19.056Z,9.90
2022-12-22T23:11:07.408Z,9.91
2022-12-22T23:13:56.125Z,9.91
2022-12-22T23:16:45.486Z,9.82
2022-12-22T23:19:33.566Z,9.80
2022-12-22T23:22:21.553Z,9.90
2022-12-22T23:25:10.305Z,9.88
2022-12-22T23:27:58.274Z,9.92
2022-12-22T23:30:49.704Z,9.81
2022-12-22T23:33:39.130Z,9.85
2022-12-22T23:36:27.200Z,9.89
2022-12-22T23:39:15.370Z,9.89
2022-12-22T23:42:03.878Z,9.87
2022-12-22T23:44:51.859Z,9.79
2022-12-22T23:47:39.873Z,9.87
2022-12-22T23:50:29.242Z,9.87
2022-12-22T23:53:18.031Z,9.86
2022-12-22T23:56:07.012Z,9.88
2022-12-22T23:58:55.387Z,9.91
